createdAt,value
2023-11-24T00:00:28.901Z,986.30
2023-11-24T00:01:29.010Z,986.19
2023-11-24T00:02:28.879Z,986.01
2023-11-24T00:03:28.686Z,986.11
2023-11-24T00:04:28.517Z,986.19
2023-11-24T00:05:28.434Z,986.08
2023-11-24T00:06:28.450Z,985.89
2023-11-24T00:07:28.301Z,986.11
2023-11-24T00:10:00.776Z,985.99
2023-11-24T00:11:00.603Z,986.06
2023-11-24T00:12:00.535Z,986.02
2023-11-24T00:13:00.458Z,985.95
2023-11-24T00:14:00.365Z,986.06
2023-11-24T00:15:00.254Z,985.92
2023-11-24T00:16:00.355Z,985.91
2023-11-24T00:17:00.091Z,985.97
2023-11-24T00:18:00.049Z,986.02
2023-11-24T00:18:59.988Z,986.02
2023-11-24T00:19:59.836Z,985.96
2023-11-24T00:20:59.750Z,985.94
2023-11-24T00:21:59.694Z,985.95
2023-11-24T00:22:59.641Z,985.81
2023-11-24T00:23:59.498Z,985.91
2023-11-24T00:24:59.472Z,985.96
2023-11-24T00:25:59.328Z,986.03
2023-11-24T00:26:59.243Z,985.80
2023-11-24T00:27:59.192Z,985.99
2023-11-24T00:28:59.070Z,985.99
2023-11-24T00:29:58.995Z,986.03
2023-11-24T00:30:58.932Z,986.03
2023-11-24T00:31:58.818Z,986.02
2023-11-24T00:32:58.824Z,985.99
2023-11-24T00:33:58.765Z,986.02
2023-11-24T00:34:58.568Z,986.04
2023-11-24T00:35:58.479Z,986.05
2023-11-24T00:36:58.455Z,985.88
2023-11-24T00:37:58.357Z,985.99
2023-11-24T00:38:58.226Z,986.01
2023-11-24T00:39:58.207Z,985.89
2023-11-24T00:40:58.058Z,985.81
2023-11-24T00:41:57.976Z,985.79
2023-11-24T00:42:57.904Z,985.69
2023-11-24T00:43:57.821Z,985.69
2023-11-24T00:44:57.733Z,985.60
2023-11-24T00:45:57.679Z,985.49
2023-11-24T00:46:57.591Z,985.57
2023-11-24T00:47:57.513Z,985.54
2023-11-24T00:48:57.478Z,985.48
2023-11-24T00:49:57.291Z,985.55
2023-11-24T00:50:57.209Z,985.54
2023-11-24T00:51:57.204Z,985.64
2023-11-24T00:52:57.075Z,985.58
2023-11-24T00:53:56.964Z,985.61
2023-11-24T00:54:56.975Z,985.57
2023-11-24T00:55:56.784Z,985.65
2023-11-24T00:56:56.711Z,985.61
2023-11-24T00:57:56.730Z,985.54
2023-11-24T00:58:56.583Z,985.43
2023-11-24T00:59:56.675Z,985.47
2023-11-24T01:00:56.393Z,985.46
2023-11-24T01:01:56.317Z,985.40
2023-11-24T01:02:56.250Z,985.40
2023-11-24T01:03:56.155Z,985.42
2023-11-24T01:04:56.186Z,985.47
2023-11-24T01:05:55.935Z,985.41
2023-11-24T01:06:55.904Z,985.48
2023-11-24T01:07:55.774Z,985.45
2023-11-24T01:08:55.689Z,985.40
2023-11-24T01:09:55.653Z,985.48
2023-11-24T01:10:55.514Z,985.59
2023-11-24T01:11:55.429Z,985.57
2023-11-24T01:12:55.402Z,985.57
2023-11-24T01:13:55.264Z,985.51
2023-11-24T01:14:55.177Z,985.44
2023-11-24T01:15:55.165Z,985.47
2023-11-24T01:16:55.027Z,985.44
2023-11-24T01:17:54.937Z,985.47
2023-11-24T01:18:54.876Z,985.30
2023-11-24T01:19:54.760Z,985.06
2023-11-24T01:20:54.670Z,985.30
2023-11-24T01:21:54.640Z,985.29
2023-11-24T01:22:54.505Z,985.22
2023-11-24T01:23:54.422Z,985.07
2023-11-24T01:24:54.368Z,985.13
2023-11-24T01:25:54.248Z,985.21
2023-11-24T01:26:54.158Z,985.10
2023-11-24T01:27:54.106Z,985.22
2023-11-24T01:28:53.992Z,985.26
2023-11-24T01:29:53.904Z,985.28
2023-11-24T01:30:56.898Z,985.33
2023-11-24T01:31:53.788Z,985.28
2023-11-24T01:32:53.698Z,985.30
2023-11-24T01:33:53.664Z,985.24
2023-11-24T01:34:53.482Z,985.17
2023-11-24T01:35:53.400Z,985.07
2023-11-24T01:36:53.479Z,985.13
2023-11-24T01:37:53.228Z,984.95
2023-11-24T01:38:53.144Z,985.05
2023-11-24T01:39:53.089Z,984.99
2023-11-24T01:40:53.011Z,985.08
2023-11-24T01:41:52.903Z,985.09
2023-11-24T01:42:52.835Z,984.95
2023-11-24T01:43:52.726Z,984.99
2023-11-24T01:44:52.646Z,985.04
2023-11-24T01:45:52.720Z,984.90
2023-11-24T01:46:52.491Z,984.87
2023-11-24T01:47:52.472Z,984.94
2023-11-24T01:48:52.420Z,984.98
2023-11-24T01:49:52.213Z,984.97
2023-11-24T01:50:52.127Z,984.90
2023-11-24T01:51:52.073Z,984.80
2023-11-24T01:52:51.980Z,985.03
2023-11-24T01:53:51.875Z,984.92
2023-11-24T01:54:51.829Z,984.84
2023-11-24T01:55:51.707Z,984.82
2023-11-24T01:56:51.766Z,984.73
2023-11-24T01:57:51.669Z,984.84
2023-11-24T01:58:51.464Z,984.71
2023-11-24T01:59:51.373Z,984.64
2023-11-24T02:00:51.304Z,984.57
2023-11-24T02:01:51.308Z,984.58
2023-11-24T02:02:51.178Z,984.58
2023-11-24T02:03:51.219Z,984.80
2023-11-24T02:04:50.959Z,984.70
2023-11-24T02:05:50.915Z,984.76
2023-11-24T02:06:50.803Z,984.76
2023-11-24T02:07:50.725Z,984.89
2023-11-24T02:08:50.614Z,984.90
2023-11-24T02:09:50.600Z,984.75
2023-11-24T02:10:50.442Z,984.78
2023-11-24T02:11:50.361Z,984.67
2023-11-24T02:12:50.315Z,984.66
2023-11-24T02:13:50.191Z,984.68
2023-11-24T02:14:50.111Z,984.66
2023-11-24T02:15:50.049Z,984.70
2023-11-24T02:16:49.957Z,984.71
2023-11-24T02:17:49.883Z,984.69
2023-11-24T02:18:49.837Z,984.57
2023-11-24T02:19:49.731Z,984.54
2023-11-24T02:20:49.600Z,984.66
2023-11-24T02:21:49.604Z,984.74
2023-11-24T02:22:49.433Z,984.56
2023-11-24T02:23:49.351Z,984.60
2023-11-24T02:24:49.291Z,984.50
2023-11-24T02:25:49.182Z,984.54
2023-11-24T02:26:49.099Z,984.51
2023-11-24T02:27:49.118Z,984.43
2023-11-24T02:28:48.939Z,984.51
2023-11-24T02:29:48.846Z,984.50
2023-11-24T02:30:48.810Z,984.53
2023-11-24T02:31:48.779Z,984.50
2023-11-24T02:32:48.609Z,984.55
2023-11-24T02:33:48.621Z,984.72
2023-11-24T02:34:48.464Z,984.62
2023-11-24T02:35:48.360Z,984.80
2023-11-24T02:36:48.295Z,984.94
2023-11-24T02:37:48.179Z,984.99
2023-11-24T02:38:48.109Z,985.04
2023-11-24T02:39:48.021Z,985.09
2023-11-24T02:40:47.921Z,985.10
2023-11-24T02:41:47.934Z,984.97
2023-11-24T02:42:47.785Z,985.03
2023-11-24T02:43:47.669Z,985.04
2023-11-24T02:44:47.583Z,985.17
2023-11-24T02:45:47.508Z,985.11
2023-11-24T02:46:47.414Z,985.18
2023-11-24T02:47:47.455Z,985.17
2023-11-24T02:48:47.377Z,985.18
2023-11-24T02:49:47.197Z,985.27
2023-11-24T02:50:47.483Z,985.25
2023-11-24T02:51:47.023Z,985.32
2023-11-24T02:52:46.913Z,985.37
2023-11-24T02:53:46.824Z,985.42
2023-11-24T02:54:46.764Z,985.42
2023-11-24T02:55:46.666Z,985.51
2023-11-24T02:56:46.573Z,985.61
2023-11-24T02:57:46.522Z,985.64
2023-11-24T02:58:46.402Z,985.69
2023-11-24T02:59:46.327Z,985.71
2023-11-24T03:00:46.262Z,985.63
2023-11-24T03:01:46.211Z,985.63
2023-11-24T03:02:46.138Z,985.59
2023-11-24T03:03:46.179Z,985.56
2023-11-24T03:04:45.991Z,985.59
2023-11-24T03:05:45.813Z,985.57
2023-11-24T03:06:45.767Z,985.40
2023-11-24T03:07:45.670Z,985.46
2023-11-24T03:08:45.559Z,985.44
2023-11-24T03:09:45.503Z,985.40
2023-11-24T03:10:45.396Z,985.39
2023-11-24T03:11:45.311Z,985.34
2023-11-24T03:12:45.311Z,985.38
2023-11-24T03:13:45.148Z,985.36
2023-11-24T03:14:45.051Z,985.34
2023-11-24T03:15:45.031Z,985.32
2023-11-24T03:16:44.954Z,985.30
2023-11-24T03:17:44.850Z,985.26
2023-11-24T03:18:44.744Z,985.26
2023-11-24T03:19:44.642Z,985.20
2023-11-24T03:20:44.851Z,985.19
2023-11-24T03:21:44.464Z,985.22
2023-11-24T03:22:44.383Z,985.17
2023-11-24T03:23:44.320Z,985.19
2023-11-24T03:24:44.312Z,985.24
2023-11-24T03:25:44.122Z,985.26
2023-11-24T03:26:44.036Z,985.27
2023-11-24T03:27:44.081Z,985.26
2023-11-24T03:28:43.866Z,985.30
2023-11-24T03:29:43.927Z,985.35
2023-11-24T03:30:43.790Z,985.29
2023-11-24T03:31:43.628Z,985.33
2023-11-24T03:32:43.548Z,985.31
2023-11-24T03:33:43.545Z,985.29
2023-11-24T03:34:43.464Z,985.28
2023-11-24T03:35:43.272Z,985.28
2023-11-24T03:36:43.217Z,985.26
2023-11-24T03:37:43.106Z,985.37
2023-11-24T03:38:43.021Z,985.26
2023-11-24T03:39:42.996Z,985.24
2023-11-24T03:40:42.850Z,985.19
2023-11-24T03:41:42.767Z,985.19
2023-11-24T03:42:42.725Z,985.17
2023-11-24T03:43:42.607Z,985.18
2023-11-24T03:44:42.511Z,985.21
2023-11-24T03:45:42.460Z,985.23
2023-11-24T03:46:42.368Z,985.21
2023-11-24T03:47:42.294Z,985.16
2023-11-24T03:48:42.235Z,985.11
2023-11-24T03:49:42.096Z,985.07
2023-11-24T03:50:42.055Z,985.08
2023-11-24T03:51:41.942Z,985.03
2023-11-24T03:52:42.133Z,985.00
2023-11-24T03:53:41.753Z,985.04
2023-11-24T03:54:41.688Z,985.10
2023-11-24T03:55:41.603Z,985.05
2023-11-24T03:56:41.503Z,985.07
2023-11-24T03:57:41.467Z,985.02
2023-11-24T03:58:41.335Z,985.04
2023-11-24T03:59:41.245Z,985.05
2023-11-24T04:00:41.233Z,985.03
2023-11-24T04:01:41.209Z,984.99
2023-11-24T04:02:41.042Z,985.04
2023-11-24T04:03:40.981Z,984.98
2023-11-24T04:04:40.827Z,984.95
2023-11-24T04:05:40.744Z,984.94
2023-11-24T04:06:40.671Z,984.87
2023-11-24T04:07:40.581Z,984.79
2023-11-24T04:08:40.486Z,984.88
2023-11-24T04:09:40.407Z,984.88
2023-11-24T04:10:40.319Z,984.84
2023-11-24T04:11:40.251Z,984.81
2023-11-24T04:12:40.210Z,984.86
2023-11-24T04:13:40.063Z,984.90
2023-11-24T04:14:39.978Z,984.88
2023-11-24T04:15:39.985Z,984.83
2023-11-24T04:16:39.872Z,984.82
2023-11-24T04:17:39.776Z,984.86
2023-11-24T04:18:39.670Z,984.89
2023-11-24T04:19:39.571Z,984.82
2023-11-24T04:20:39.464Z,984.83
2023-11-24T04:21:39.822Z,984.81
2023-11-24T04:22:39.310Z,984.76
2023-11-24T04:23:39.218Z,984.78
2023-11-24T04:24:39.144Z,984.78
2023-11-24T04:25:39.050Z,984.76
2023-11-24T04:26:38.964Z,984.75
2023-11-24T04:27:38.931Z,984.69
2023-11-24T04:28:38.790Z,984.69
2023-11-24T04:29:38.702Z,984.77
2023-11-24T04:30:38.706Z,984.72
2023-11-24T04:31:38.584Z,984.72
2023-11-24T04:32:38.492Z,984.68
2023-11-24T04:33:38.461Z,984.60
2023-11-24T04:34:38.312Z,984.59
2023-11-24T04:35:38.196Z,984.61
2023-11-24T04:36:38.131Z,984.65
2023-11-24T04:37:38.025Z,984.61
2023-11-24T04:38:37.938Z,984.67
2023-11-24T04:39:37.884Z,984.63
2023-11-24T04:40:37.772Z,984.57
2023-11-24T04:41:37.688Z,984.57
2023-11-24T04:42:37.644Z,984.57
2023-11-24T04:43:37.535Z,984.60
2023-11-24T04:44:37.434Z,984.61
2023-11-24T04:45:37.433Z,984.62
2023-11-24T04:46:37.327Z,984.61
2023-11-24T04:47:37.288Z,984.56
2023-11-24T04:48:37.121Z,984.54
2023-11-24T04:49:37.004Z,984.52
2023-11-24T04:50:36.934Z,984.60
2023-11-24T04:51:36.856Z,984.64
2023-11-24T04:52:36.759Z,984.61
2023-11-24T04:53:39.303Z,984.64
2023-11-24T04:54:36.599Z,984.63
2023-11-24T04:55:36.493Z,984.58
2023-11-24T04:56:36.411Z,984.65
2023-11-24T04:57:36.352Z,984.62
2023-11-24T04:58:36.236Z,984.62
2023-11-24T04:59:36.168Z,984.60
2023-11-24T05:00:36.081Z,984.67
2023-11-24T05:01:36.168Z,984.73
2023-11-24T05:02:36.002Z,984.72
2023-11-24T05:03:35.909Z,984.79
2023-11-24T05:04:35.804Z,984.75
2023-11-24T05:05:35.647Z,984.79
2023-11-24T05:06:35.615Z,984.79
2023-11-24T05:07:35.479Z,984.79
2023-11-24T05:08:35.388Z,984.72
2023-11-24T05:09:35.340Z,984.77
2023-11-24T05:10:35.210Z,984.72
2023-11-24T05:11:35.125Z,984.70
2023-11-24T05:12:35.052Z,984.70
2023-11-24T05:13:34.958Z,984.68
2023-11-24T05:14:34.872Z,984.68
2023-11-24T05:15:34.830Z,984.66
2023-11-24T05:16:34.760Z,984.70
2023-11-24T05:17:34.632Z,984.74
2023-11-24T05:18:34.558Z,984.71
2023-11-24T05:19:34.446Z,984.67
2023-11-24T05:20:34.361Z,984.73
2023-11-24T05:21:34.285Z,984.76
2023-11-24T05:22:34.189Z,984.78
2023-11-24T05:23:34.114Z,984.79
2023-11-24T05:24:34.088Z,984.82
2023-11-24T05:25:33.937Z,984.90
2023-11-24T05:26:33.849Z,984.92
2023-11-24T05:27:33.809Z,984.93
2023-11-24T05:28:33.683Z,984.93
2023-11-24T05:29:33.596Z,984.90
2023-11-24T05:30:33.564Z,984.88
2023-11-24T05:31:33.485Z,984.92
2023-11-24T05:32:33.385Z,984.91
2023-11-24T05:33:33.262Z,984.88
2023-11-24T05:34:33.172Z,984.91
2023-11-24T05:35:33.098Z,984.95
2023-11-24T05:36:33.027Z,984.97
2023-11-24T05:37:32.928Z,984.90
2023-11-24T05:38:32.842Z,984.89
2023-11-24T05:39:32.765Z,984.86
2023-11-24T05:40:32.668Z,984.84
2023-11-24T05:41:32.595Z,984.79
2023-11-24T05:42:32.517Z,984.85
2023-11-24T05:43:32.411Z,984.82
2023-11-24T05:44:32.335Z,984.84
2023-11-24T05:45:32.268Z,984.86
2023-11-24T05:46:32.318Z,984.84
2023-11-24T05:47:32.119Z,984.84
2023-11-24T05:48:32.002Z,984.84
2023-11-24T05:49:31.905Z,984.84
2023-11-24T05:50:31.831Z,984.82
2023-11-24T05:51:31.744Z,984.82
2023-11-24T05:52:31.652Z,984.85
2023-11-24T05:53:31.571Z,984.82
2023-11-24T05:54:31.511Z,984.79
2023-11-24T05:55:31.399Z,984.78
2023-11-24T05:56:31.318Z,984.84
2023-11-24T05:57:31.252Z,984.79
2023-11-24T05:58:31.147Z,984.75
2023-11-24T05:59:31.752Z,984.68
2023-11-24T06:00:31.013Z,984.65
2023-11-24T06:01:30.917Z,984.56
2023-11-24T06:02:30.822Z,984.51
2023-11-24T06:03:30.796Z,984.59
2023-11-24T06:04:30.791Z,984.58
2023-11-24T06:05:30.569Z,984.56
2023-11-24T06:06:30.495Z,984.56
2023-11-24T06:07:30.383Z,984.57
2023-11-24T06:08:30.367Z,984.50
2023-11-24T06:09:30.286Z,984.50
2023-11-24T06:10:30.130Z,984.53
2023-11-24T06:11:30.043Z,984.52
2023-11-24T06:12:30.025Z,984.49
2023-11-24T06:13:29.896Z,984.48
2023-11-24T06:14:29.789Z,984.48
2023-11-24T06:15:29.724Z,984.50
2023-11-24T06:16:29.645Z,984.49
2023-11-24T06:17:29.566Z,984.49
2023-11-24T06:18:29.593Z,984.46
2023-11-24T06:19:29.632Z,984.42
2023-11-24T06:20:29.289Z,984.37
2023-11-24T06:21:29.200Z,984.36
2023-11-24T06:22:29.120Z,984.35
2023-11-24T06:23:29.026Z,984.33
2023-11-24T06:24:28.941Z,984.36
2023-11-24T06:25:28.927Z,984.36
2023-11-24T06:26:28.783Z,984.33
2023-11-24T06:27:28.698Z,984.38
2023-11-24T06:28:28.606Z,984.43
2023-11-24T06:29:28.512Z,984.40
2023-11-24T06:30:28.443Z,984.40
2023-11-24T06:31:28.346Z,984.38
2023-11-24T06:32:28.300Z,984.35
2023-11-24T06:33:28.205Z,984.38
2023-11-24T06:34:28.291Z,984.35
2023-11-24T06:35:28.032Z,984.35
2023-11-24T06:36:27.933Z,984.36
2023-11-24T06:37:27.832Z,984.38
2023-11-24T06:38:27.759Z,984.37
2023-11-24T06:39:27.667Z,984.36
2023-11-24T06:40:27.580Z,984.33
2023-11-24T06:41:27.493Z,984.35
2023-11-24T06:42:27.410Z,984.38
2023-11-24T06:43:27.323Z,984.36
2023-11-24T06:44:27.276Z,984.35
2023-11-24T06:45:27.155Z,984.34
2023-11-24T06:46:27.151Z,984.33
2023-11-24T06:47:27.058Z,984.30
2023-11-24T06:48:26.903Z,984.31
2023-11-24T06:49:26.811Z,984.30
2023-11-24T06:50:26.777Z,984.34
2023-11-24T06:51:26.664Z,984.26
2023-11-24T06:52:26.556Z,984.24
2023-11-24T06:53:26.479Z,984.26
2023-11-24T06:54:26.390Z,984.25
2023-11-24T06:55:26.325Z,984.22
2023-11-24T06:56:26.220Z,984.25
2023-11-24T06:57:26.132Z,984.22
2023-11-24T06:58:26.358Z,984.17
2023-11-24T06:59:25.961Z,984.14
2023-11-24T07:00:25.876Z,984.17
2023-11-24T07:01:25.912Z,984.23
2023-11-24T07:02:25.803Z,984.24
2023-11-24T07:03:25.689Z,984.24
2023-11-24T07:04:25.877Z,984.26
2023-11-24T07:05:25.451Z,984.24
2023-11-24T07:06:25.363Z,984.29
2023-11-24T07:07:25.300Z,984.30
2023-11-24T07:08:25.209Z,984.30
2023-11-24T07:09:25.365Z,984.31
2023-11-24T07:10:25.364Z,984.31
2023-11-24T07:11:24.964Z,984.31
2023-11-24T07:12:24.853Z,984.32
2023-11-24T07:13:24.773Z,984.28
2023-11-24T07:14:24.750Z,984.31
2023-11-24T07:15:24.606Z,984.32
2023-11-24T07:16:24.611Z,984.27
2023-11-24T07:17:24.430Z,984.32
2023-11-24T07:18:24.564Z,984.32
2023-11-24T07:19:24.303Z,984.33
2023-11-24T07:20:24.174Z,984.36
2023-11-24T07:21:24.099Z,984.31
2023-11-24T07:22:24.405Z,984.34
2023-11-24T07:23:23.941Z,984.33
2023-11-24T07:24:23.837Z,984.39
2023-11-24T07:25:23.748Z,984.39
2023-11-24T07:26:23.665Z,984.34
2023-11-24T07:27:23.577Z,984.38
2023-11-24T07:28:23.500Z,984.40
2023-11-24T07:29:23.404Z,984.37
2023-11-24T07:30:23.323Z,984.42
2023-11-24T07:31:23.240Z,984.40
2023-11-24T07:32:23.150Z,984.34
2023-11-24T07:33:23.066Z,984.36
2023-11-24T07:34:23.202Z,984.35
2023-11-24T07:35:22.943Z,984.30
2023-11-24T07:36:23.069Z,984.31
2023-11-24T07:37:22.720Z,984.29
2023-11-24T07:38:22.741Z,984.27
2023-11-24T07:39:22.580Z,984.25
2023-11-24T07:40:22.509Z,984.30
2023-11-24T07:41:22.384Z,984.26
2023-11-24T07:42:22.298Z,984.22
2023-11-24T07:43:22.220Z,984.24
2023-11-24T07:44:22.128Z,984.22
2023-11-24T07:45:22.045Z,984.15
2023-11-24T07:46:22.080Z,984.16
2023-11-24T07:47:21.914Z,984.11
2023-11-24T07:48:21.789Z,984.06
2023-11-24T07:49:21.712Z,984.08
2023-11-24T07:50:21.627Z,984.09
2023-11-24T07:51:21.530Z,984.02
2023-11-24T07:52:21.447Z,984.02
2023-11-24T07:53:21.412Z,983.98
2023-11-24T07:54:21.282Z,983.99
2023-11-24T07:55:21.235Z,983.97
2023-11-24T07:56:21.106Z,984.03
2023-11-24T07:57:21.024Z,983.98
2023-11-24T07:58:20.937Z,983.93
2023-11-24T07:59:20.858Z,983.91
2023-11-24T08:00:20.779Z,983.90
2023-11-24T08:01:20.819Z,983.83
2023-11-24T08:02:20.647Z,983.79
2023-11-24T08:03:20.639Z,983.90
2023-11-24T08:04:20.617Z,983.93
2023-11-24T08:05:20.345Z,983.91
2023-11-24T08:06:20.260Z,983.87
2023-11-24T08:07:20.200Z,983.93
2023-11-24T08:08:20.098Z,983.86
2023-11-24T08:09:20.006Z,983.87
2023-11-24T08:10:19.976Z,983.86
2023-11-24T08:11:19.855Z,983.88
2023-11-24T08:12:19.750Z,983.87
2023-11-24T08:13:19.864Z,983.83
2023-11-24T08:14:19.579Z,983.81
2023-11-24T08:15:19.497Z,983.85
2023-11-24T08:16:19.474Z,983.82
2023-11-24T08:17:19.324Z,983.87
2023-11-24T08:18:19.243Z,983.84
2023-11-24T08:19:19.214Z,983.85
2023-11-24T08:20:19.070Z,983.86
2023-11-24T08:21:18.985Z,983.84
2023-11-24T08:22:19.125Z,983.80
2023-11-24T08:23:18.835Z,983.81
2023-11-24T08:24:18.761Z,983.77
2023-11-24T08:25:18.713Z,983.71
2023-11-24T08:26:18.592Z,983.70
2023-11-24T08:27:18.497Z,983.65
2023-11-24T08:28:18.474Z,983.62
2023-11-24T08:29:18.310Z,983.54
2023-11-24T08:30:18.422Z,983.54
2023-11-24T08:31:18.195Z,983.55
2023-11-24T08:32:18.054Z,983.50
2023-11-24T08:33:18.015Z,983.54
2023-11-24T08:34:17.968Z,983.44
2023-11-24T08:35:17.867Z,983.37
2023-11-24T08:36:17.713Z,983.43
2023-11-24T08:37:17.649Z,983.34
2023-11-24T08:38:17.766Z,983.28
2023-11-24T08:39:17.458Z,983.26
2023-11-24T08:40:17.445Z,983.26
2023-11-24T08:41:26.523Z,983.32
2023-11-24T08:42:17.213Z,983.34
2023-11-24T08:43:17.188Z,983.33
2023-11-24T08:44:17.033Z,983.40
2023-11-24T08:45:16.956Z,983.41
2023-11-24T08:46:16.980Z,983.37
2023-11-24T08:47:16.783Z,983.41
2023-11-24T08:48:16.706Z,983.38
2023-11-24T08:49:16.657Z,983.40
2023-11-24T08:50:16.524Z,983.38
2023-11-24T08:51:16.441Z,983.40
2023-11-24T08:52:16.424Z,983.41
2023-11-24T08:53:16.272Z,983.40
2023-11-24T08:54:16.181Z,983.47
2023-11-24T08:55:16.122Z,983.36
2023-11-24T08:56:16.168Z,983.40
2023-11-24T08:57:15.929Z,983.37
2023-11-24T08:58:15.915Z,983.34
2023-11-24T08:59:15.775Z,983.31
2023-11-24T09:00:15.818Z,983.39
2023-11-24T09:01:15.668Z,983.43
2023-11-24T09:02:15.669Z,983.33
2023-11-24T09:03:15.416Z,983.37
2023-11-24T09:04:15.394Z,983.35
2023-11-24T09:05:15.316Z,983.34
2023-11-24T09:06:15.194Z,983.27
2023-11-24T09:07:15.115Z,983.27
2023-11-24T09:08:18.232Z,983.23
2023-11-24T09:09:14.916Z,983.19
2023-11-24T09:10:14.883Z,983.18
2023-11-24T09:11:14.746Z,983.15
2023-11-24T09:12:14.650Z,983.15
2023-11-24T09:13:14.670Z,983.19
2023-11-24T09:14:14.535Z,983.17
2023-11-24T09:15:14.459Z,983.15
2023-11-24T09:16:14.346Z,983.14
2023-11-24T09:17:14.255Z,983.09
2023-11-24T09:18:14.219Z,983.07
2023-11-24T09:19:14.149Z,983.01
2023-11-24T09:20:13.973Z,983.08
2023-11-24T09:21:13.912Z,983.01
2023-11-24T09:22:13.852Z,982.99
2023-11-24T09:23:13.725Z,982.97
2023-11-24T09:24:13.637Z,983.01
2023-11-24T09:25:13.686Z,983.01
2023-11-24T09:26:13.467Z,982.95
2023-11-24T09:27:13.386Z,982.94
2023-11-24T09:28:13.332Z,982.87
2023-11-24T09:29:13.248Z,982.89
2023-11-24T09:30:13.216Z,982.87
2023-11-24T09:31:13.131Z,982.86
2023-11-24T09:32:12.966Z,982.85
2023-11-24T09:33:12.934Z,982.85
2023-11-24T09:34:12.829Z,982.84
2023-11-24T09:35:13.018Z,982.82
2023-11-24T09:36:12.628Z,982.75
2023-11-24T09:37:12.788Z,982.72
2023-11-24T09:38:12.450Z,982.60
2023-11-24T09:39:12.372Z,982.68
2023-11-24T09:40:12.342Z,982.60
2023-11-24T09:41:12.211Z,982.57
2023-11-24T09:42:12.334Z,982.52
2023-11-24T09:43:12.087Z,982.50
2023-11-24T09:44:11.943Z,982.44
2023-11-24T09:45:11.881Z,982.41
2023-11-24T09:46:11.977Z,982.41
2023-11-24T09:47:11.752Z,982.39
2023-11-24T09:48:11.629Z,982.37
2023-11-24T09:49:11.688Z,982.31
2023-11-24T09:50:11.437Z,982.34
2023-11-24T09:51:11.355Z,982.31
2023-11-24T09:52:11.313Z,982.24
2023-11-24T09:53:11.187Z,982.18
2023-11-24T09:54:11.098Z,982.14
2023-11-24T09:55:11.052Z,982.18
2023-11-24T09:56:10.941Z,982.13
2023-11-24T09:57:10.842Z,982.15
2023-11-24T09:58:10.830Z,982.05
2023-11-24T09:59:10.686Z,982.11
2023-11-24T10:00:10.585Z,982.08
2023-11-24T10:01:10.516Z,982.07
2023-11-24T10:02:10.448Z,982.05
2023-11-24T10:03:10.407Z,982.02
2023-11-24T10:04:10.479Z,982.02
2023-11-24T10:05:10.165Z,982.00
2023-11-24T10:06:10.217Z,982.02
2023-11-24T10:07:10.085Z,982.01
2023-11-24T10:08:12.025Z,982.02
2023-11-24T10:09:09.829Z,981.99
2023-11-24T10:10:09.864Z,981.96
2023-11-24T10:11:09.673Z,981.97
2023-11-24T10:12:09.579Z,981.94
2023-11-24T10:13:09.508Z,981.92
2023-11-24T10:14:09.405Z,981.87
2023-11-24T10:15:09.324Z,981.87
2023-11-24T10:16:09.269Z,981.82
2023-11-24T10:17:09.217Z,981.80
2023-11-24T10:18:09.167Z,981.82
2023-11-24T10:19:09.072Z,981.82
2023-11-24T10:20:08.909Z,981.84
2023-11-24T10:21:19.586Z,981.74
2023-11-24T10:22:08.775Z,981.73
2023-11-24T10:23:08.657Z,981.71
2023-11-24T10:24:08.565Z,981.67
2023-11-24T10:25:08.572Z,981.64
2023-11-24T10:26:08.594Z,981.63
2023-11-24T10:27:08.325Z,981.64
2023-11-24T10:28:08.482Z,981.71
2023-11-24T10:29:08.144Z,981.72
2023-11-24T10:30:08.055Z,981.60
2023-11-24T10:31:08.099Z,981.65
2023-11-24T10:32:07.888Z,981.69
2023-11-24T10:33:07.962Z,981.66
2023-11-24T10:34:07.764Z,981.59
2023-11-24T10:35:07.740Z,981.57
2023-11-24T10:36:07.563Z,981.56
2023-11-24T10:37:07.498Z,981.54
2023-11-24T10:38:07.681Z,981.61
2023-11-24T10:39:07.295Z,981.74
2023-11-24T10:40:07.269Z,981.70
2023-11-24T10:41:07.135Z,981.73
2023-11-24T10:42:07.037Z,981.62
2023-11-24T10:43:06.999Z,981.69
2023-11-24T10:44:06.886Z,981.76
2023-11-24T10:45:06.806Z,981.62
2023-11-24T10:46:06.713Z,981.59
2023-11-24T10:47:06.680Z,981.51
2023-11-24T10:48:06.582Z,981.50
2023-11-24T10:49:06.506Z,981.55
2023-11-24T10:50:06.357Z,981.54
2023-11-24T10:51:06.307Z,981.47
2023-11-24T10:52:06.223Z,981.40
2023-11-24T10:53:06.099Z,981.48
2023-11-24T10:54:06.014Z,981.51
2023-11-24T10:55:06.007Z,981.47
2023-11-24T10:56:05.853Z,981.45
2023-11-24T10:57:05.761Z,981.43
2023-11-24T10:58:05.723Z,981.44
2023-11-24T10:59:05.592Z,981.44
2023-11-24T11:00:05.534Z,981.43
2023-11-24T11:01:05.529Z,981.37
2023-11-24T11:02:05.439Z,981.37
2023-11-24T11:03:05.295Z,981.31
2023-11-24T11:04:05.178Z,981.33
2023-11-24T11:05:05.128Z,981.28
2023-11-24T11:06:05.111Z,981.31
2023-11-24T11:07:05.130Z,981.26
2023-11-24T11:08:04.835Z,981.22
2023-11-24T11:09:04.986Z,981.27
2023-11-24T11:10:04.711Z,981.31
2023-11-24T11:11:04.612Z,981.36
2023-11-24T11:12:04.480Z,981.38
2023-11-24T11:13:04.490Z,981.40
2023-11-24T11:14:06.219Z,981.53
2023-11-24T11:15:04.225Z,981.36
2023-11-24T11:16:04.150Z,981.46
2023-11-24T11:17:04.076Z,981.49
2023-11-24T11:18:04.008Z,981.49
2023-11-24T11:19:04.597Z,981.47
2023-11-24T11:20:05.702Z,981.40
2023-11-24T11:21:03.710Z,981.48
2023-11-24T11:22:03.685Z,981.40
2023-11-24T11:23:03.571Z,981.49
2023-11-24T11:24:03.458Z,981.36
2023-11-24T11:25:03.406Z,981.36
2023-11-24T11:26:06.054Z,981.34
2023-11-24T11:27:03.193Z,981.32
2023-11-24T11:28:03.116Z,981.33
2023-11-24T11:29:03.043Z,981.28
2023-11-24T11:30:02.933Z,981.27
2023-11-24T11:31:02.976Z,981.25
2023-11-24T11:32:02.870Z,981.25
2023-11-24T11:33:02.755Z,981.30
2023-11-24T11:34:02.700Z,981.28
2023-11-24T11:35:02.504Z,981.31
2023-11-24T11:36:02.414Z,981.28
2023-11-24T11:37:02.472Z,981.33
2023-11-24T11:38:02.242Z,981.24
2023-11-24T11:39:02.182Z,981.25
2023-11-24T11:40:02.107Z,981.30
2023-11-24T11:41:01.987Z,981.28
2023-11-24T11:42:01.913Z,981.31
2023-11-24T11:43:01.839Z,981.29
2023-11-24T11:44:01.730Z,981.31
2023-11-24T11:45:01.664Z,981.30
2023-11-24T11:46:01.578Z,981.30
2023-11-24T11:47:01.480Z,981.23
2023-11-24T11:48:01.433Z,981.24
2023-11-24T11:49:01.345Z,981.21
2023-11-24T11:50:01.219Z,981.23
2023-11-24T11:51:01.131Z,981.15
2023-11-24T11:52:01.137Z,981.05
2023-11-24T11:53:00.984Z,981.13
2023-11-24T11:54:00.889Z,981.12
2023-11-24T11:55:00.866Z,981.07
2023-11-24T11:56:00.719Z,981.07
2023-11-24T11:57:00.620Z,981.09
2023-11-24T11:58:00.570Z,981.08
2023-11-24T11:59:00.450Z,981.04
2023-11-24T12:00:00.420Z,981.02
2023-11-24T12:01:00.361Z,981.04
2023-11-24T12:02:00.279Z,980.94
2023-11-24T12:03:00.535Z,980.98
2023-11-24T12:04:00.083Z,980.97
2023-11-24T12:04:59.935Z,980.99
2023-11-24T12:05:59.849Z,980.99
2023-11-24T12:06:59.789Z,980.95
2023-11-24T12:07:59.832Z,980.96
2023-11-24T12:08:59.751Z,980.90
2023-11-24T12:09:59.523Z,980.91
2023-11-24T12:10:59.462Z,980.88
2023-11-24T12:11:59.434Z,980.91
2023-11-24T12:12:59.350Z,980.89
2023-11-24T12:13:59.165Z,980.87
2023-11-24T12:14:59.095Z,980.89
2023-11-24T12:15:59.161Z,980.82
2023-11-24T12:16:59.004Z,980.81
2023-11-24T12:17:58.930Z,980.82
2023-11-24T12:18:58.778Z,980.78
2023-11-24T12:19:58.656Z,980.74
2023-11-24T12:20:58.569Z,980.72
2023-11-24T12:21:58.498Z,980.69
2023-11-24T12:22:58.398Z,980.63
2023-11-24T12:24:12.220Z,980.60
2023-11-24T12:24:58.257Z,980.62
2023-11-24T12:25:58.145Z,980.58
2023-11-24T12:26:58.172Z,980.55
2023-11-24T12:27:58.032Z,980.54
2023-11-24T12:28:57.885Z,980.52